Flight Track Log - Related Links

Times and Time Zones

All times are in EDT time to prevent confusion due to time zone crossing. See the JZA934 flight status page for this flight to view local times or setup timezone preferences in your user account.

Time Position Orientation Groundspeed Altitude Reporting Facility
EDT Latitude Longitude Course Direction KTS MPH feet Rate Location/Type
Fri 09:59:15 AM 45.6326 -68.1510 78° East  Level FlightAware Approximate
Fri 10:02:01 AM 45.7833 -67.1333 82° East 380 437 25,000  Level Moncton Center
Fri 10:03:01 AM 45.8000 -66.9667 72° East 380 437 25,000 -700 Level Moncton Center
Fri 10:04:01 AM 45.8333 -66.8167 82° East 400 460 23,600 -1,550 Descending Moncton Center
Fri 10:05:01 AM 45.8500 -66.6333 81° East 420 483 21,900 -1,600 Descending Moncton Center
Fri 10:06:01 AM 45.8667 -66.4833 74° East 420 483 20,400 -1,500 Descending Moncton Center
Fri 10:07:01 AM 45.9000 -66.3167 74° East 410 472 18,900 -1,550 Descending Moncton Center
Fri 10:08:01 AM 45.9333 -66.1500 80° East 400 460 17,300 -1,550 Descending Moncton Center
Fri 10:09:01 AM 45.9500 -66.0167 90° East 400 460 15,800 -1,600 Descending Moncton Center
Fri 10:10:01 AM 45.9500 -65.8333 80° East 390 449 14,100 -1,600 Descending Moncton Center
Fri 10:11:01 AM 45.9667 -65.7000 90° East 380 437 12,600 -1,550 Descending Moncton Center
Fri 10:12:01 AM 45.9667 -65.5500 80° East 370 426 11,000 -1,300 Descending Moncton Center
Fri 10:13:01 AM 45.9833 -65.4167 90° East 350 403 10,000 -1,250 Descending Moncton Center
Fri 10:14:01 AM 45.9833 -65.3167 81° East 310 357 8,500 -1,450 Descending Moncton Center
Fri 10:15:01 AM 46.0000 -65.1667 90° East 300 345 7,100 -1,400 Descending Moncton Center
Fri 10:16:01 AM 46.0000 -65.0667 68° East 290 334 5,700 -1,500 Descending Moncton Center
Fri 10:17:01 AM 46.0333 -64.9500 90° East 280 322 4,100 -1,250 Descending Moncton Center
Fri 10:18:01 AM 46.0333 -64.8500 74° East 260 299 3,200 -1,100 Descending Moncton Center
Fri 10:19:01 AM 46.0500 -64.7667 74° East 230 265 1,900 -900 Descending Moncton Center
Fri 10:20:01 AM 46.0667 -64.6833 90° East 210 242 1,400 -300 Descending Moncton Center
Fri 10:21:01 AM 46.0667 -64.6167 35° Northeast 180 207 1,300 -100 Descending Moncton Center
Fri 10:22:01 AM 46.1000 -64.5833 270° West 140 161 1,200 -350 Descending Moncton Center
Fri 10:23:01 AM 46.1000 -64.6333 270° West 130 150 600 -450 Descending Moncton Center
Fri 10:24:01 AM 46.1000 -64.6833 270° West 120 138 300 -300 Descending Moncton Center

Login

Don't have an account? Register now (free) for customized features, flight alerts, and more!